createdAt,value
2018-03-31T00:00:38.948Z,63.57
2018-03-31T00:01:38.870Z,65.48
2018-03-31T00:02:38.774Z,68.44
2018-03-31T00:03:38.705Z,68.73
2018-03-31T00:04:38.636Z,69.31
2018-03-31T00:05:38.568Z,69.21
2018-03-31T00:06:38.516Z,69.11
2018-03-31T00:07:38.424Z,69.02
2018-03-31T00:08:38.351Z,69.11
2018-03-31T00:09:38.275Z,68.92
2018-03-31T00:10:38.219Z,69.49
2018-03-31T00:11:38.177Z,69.11
2018-03-31T00:12:38.080Z,69.31
2018-03-31T00:13:37.995Z,69.40
2018-03-31T00:14:37.919Z,69.21
2018-03-31T00:15:37.872Z,69.21
2018-03-31T00:16:37.795Z,69.21
2018-03-31T00:17:37.714Z,69.11
2018-03-31T00:18:37.653Z,69.21
2018-03-31T00:19:37.568Z,69.11
2018-03-31T00:20:37.517Z,69.02
2018-03-31T00:21:37.448Z,68.82
2018-03-31T00:22:37.351Z,69.49
2018-03-31T00:23:37.278Z,69.40
2018-03-31T00:24:37.214Z,69.40
2018-03-31T00:25:37.141Z,69.21
2018-03-31T00:26:37.087Z,69.21
2018-03-31T00:27:37.010Z,69.02
2018-03-31T00:28:36.944Z,68.79
2018-03-31T00:29:36.853Z,68.60
2018-03-31T00:30:36.793Z,68.44
2018-03-31T00:31:36.716Z,68.32
2018-03-31T00:32:36.657Z,68.51
2018-03-31T00:33:36.572Z,68.12
2018-03-31T00:34:36.487Z,67.07
2018-03-31T00:35:36.439Z,66.06
2018-03-31T00:36:36.367Z,65.48
2018-03-31T00:37:36.281Z,64.88
2018-03-31T00:38:36.260Z,65.07
2018-03-31T00:39:36.146Z,66.02
2018-03-31T00:40:36.063Z,65.26
2018-03-31T00:41:36.006Z,65.26
2018-03-31T00:42:35.930Z,65.26
2018-03-31T00:43:35.857Z,65.64
2018-03-31T00:44:35.791Z,65.83
2018-03-31T00:45:35.714Z,65.36
2018-03-31T00:46:35.645Z,64.88
2018-03-31T00:47:35.561Z,64.69
2018-03-31T00:48:35.509Z,64.69
2018-03-31T00:49:35.410Z,64.69
2018-03-31T00:50:35.339Z,64.69
2018-03-31T00:51:35.271Z,64.69
2018-03-31T00:52:35.199Z,64.40
2018-03-31T00:53:35.143Z,64.12
2018-03-31T00:54:35.055Z,65.17
2018-03-31T00:55:34.983Z,64.88
2018-03-31T00:56:34.934Z,64.97
2018-03-31T00:57:34.850Z,64.88
2018-03-31T00:58:34.762Z,65.07
2018-03-31T00:59:34.695Z,64.69
2018-03-31T01:00:34.615Z,64.59
2018-03-31T01:01:34.551Z,63.54
2018-03-31T01:02:34.471Z,63.45
2018-03-31T01:03:34.415Z,63.35
2018-03-31T01:04:34.348Z,63.45
2018-03-31T01:05:34.261Z,62.97
2018-03-31T01:06:34.201Z,62.49
2018-03-31T01:07:34.132Z,63.07
2018-03-31T01:08:34.046Z,62.78
2018-03-31T01:09:33.969Z,62.11
2018-03-31T01:10:33.912Z,61.44
2018-03-31T01:11:33.843Z,61.83
2018-03-31T01:12:33.751Z,61.07
2018-03-31T01:13:33.681Z,60.87
2018-03-31T01:14:33.605Z,60.49
2018-03-31T01:15:33.550Z,60.11
2018-03-31T01:16:33.487Z,60.11
2018-03-31T01:17:33.395Z,59.73
2018-03-31T01:18:33.336Z,59.92
2018-03-31T01:19:33.245Z,60.02
2018-03-31T01:20:33.177Z,59.73
2018-03-31T01:21:33.100Z,60.11
2018-03-31T01:22:33.065Z,59.44
2018-03-31T01:23:33.004Z,59.06
2018-03-31T01:24:32.912Z,58.77
2018-03-31T01:25:32.811Z,59.16
2018-03-31T01:26:32.790Z,58.77
2018-03-31T01:27:32.674Z,58.77
2018-03-31T01:28:32.597Z,58.68
2018-03-31T01:29:32.561Z,58.87
2018-03-31T01:30:32.454Z,58.68
2018-03-31T01:31:32.391Z,58.20
2018-03-31T01:32:32.319Z,58.11
2018-03-31T01:33:32.241Z,58.39
2018-03-31T01:34:32.164Z,57.72
2018-03-31T01:35:32.110Z,57.63
2018-03-31T01:36:32.031Z,58.11
2018-03-31T01:37:31.947Z,57.53
2018-03-31T01:38:31.895Z,57.15
2018-03-31T01:39:31.817Z,56.67
2018-03-31T01:40:31.756Z,56.96
2018-03-31T01:41:31.658Z,56.96
2018-03-31T01:42:31.585Z,56.58
2018-03-31T01:43:31.514Z,56.20
2018-03-31T01:44:31.442Z,56.48
2018-03-31T01:45:31.374Z,56.67
2018-03-31T01:46:31.298Z,56.87
2018-03-31T01:47:31.224Z,56.87
2018-03-31T01:48:31.164Z,56.84
2018-03-31T01:49:31.081Z,57.12
2018-03-31T01:50:31.022Z,57.43
2018-03-31T01:51:30.937Z,56.96
2018-03-31T01:52:30.880Z,56.96
2018-03-31T01:53:30.813Z,56.87
2018-03-31T01:54:30.741Z,56.87
2018-03-31T01:55:30.644Z,55.91
2018-03-31T01:56:30.574Z,56.01
2018-03-31T01:57:30.502Z,55.91
2018-03-31T01:58:30.444Z,55.15
2018-03-31T01:59:30.373Z,55.34
2018-03-31T02:00:30.285Z,55.34
2018-03-31T02:01:30.208Z,55.53
2018-03-31T02:02:30.136Z,55.43
2018-03-31T02:03:30.067Z,55.53
2018-03-31T02:04:29.994Z,55.05
2018-03-31T02:05:29.933Z,55.34
2018-03-31T02:06:29.857Z,55.53
2018-03-31T02:07:29.776Z,55.91
2018-03-31T02:08:29.722Z,56.10
2018-03-31T02:09:29.637Z,56.10
2018-03-31T02:10:29.577Z,56.17
2018-03-31T02:11:29.505Z,56.87
2018-03-31T02:12:29.417Z,56.77
2018-03-31T02:13:29.342Z,56.96
2018-03-31T02:14:29.276Z,56.01
2018-03-31T02:15:29.227Z,56.01
2018-03-31T02:16:29.134Z,57.15
2018-03-31T02:17:29.070Z,56.58
2018-03-31T02:18:28.990Z,56.29
2018-03-31T02:19:28.934Z,56.67
2018-03-31T02:20:28.860Z,56.77
2018-03-31T02:21:28.770Z,57.06
2018-03-31T02:22:28.706Z,56.96
2018-03-31T02:23:28.626Z,56.96
2018-03-31T02:24:28.552Z,56.77
2018-03-31T02:25:28.506Z,57.06
2018-03-31T02:26:28.436Z,57.12
2018-03-31T02:27:28.332Z,57.63
2018-03-31T02:28:28.268Z,57.92
2018-03-31T02:29:28.207Z,57.98
2018-03-31T02:30:28.128Z,58.75
2018-03-31T02:31:28.050Z,58.75
2018-03-31T02:32:27.997Z,58.94
2018-03-31T02:33:27.929Z,58.65
2018-03-31T02:34:27.853Z,59.31
2018-03-31T02:35:27.771Z,59.41
2018-03-31T02:36:27.718Z,58.94
2018-03-31T02:37:27.611Z,59.25
2018-03-31T02:38:27.544Z,59.06
2018-03-31T02:39:27.466Z,58.97
2018-03-31T02:40:27.416Z,59.03
2018-03-31T02:41:27.329Z,58.65
2018-03-31T02:42:27.255Z,58.58
2018-03-31T02:43:27.182Z,58.77
2018-03-31T02:44:27.110Z,58.87
2018-03-31T02:45:27.050Z,58.55
2018-03-31T02:46:26.963Z,58.75
2018-03-31T02:47:26.894Z,58.68
2018-03-31T02:48:26.828Z,58.77
2018-03-31T02:49:26.795Z,59.03
2018-03-31T02:50:26.700Z,59.60
2018-03-31T02:51:26.600Z,59.89
2018-03-31T02:52:26.559Z,59.79
2018-03-31T02:53:26.467Z,59.12
2018-03-31T02:54:26.397Z,59.70
2018-03-31T02:55:26.337Z,59.31
2018-03-31T02:56:26.244Z,60.11
2018-03-31T02:57:26.171Z,59.89
2018-03-31T02:58:26.113Z,60.17
2018-03-31T02:59:26.042Z,60.21
2018-03-31T03:00:25.949Z,60.46
2018-03-31T03:01:25.981Z,59.99
2018-03-31T03:02:25.817Z,59.99
2018-03-31T03:03:25.766Z,60.36
2018-03-31T03:04:25.669Z,60.27
2018-03-31T03:05:25.592Z,60.68
2018-03-31T03:06:25.530Z,60.46
2018-03-31T03:07:25.466Z,60.27
2018-03-31T03:08:25.374Z,60.49
2018-03-31T03:09:25.315Z,60.65
2018-03-31T03:10:25.233Z,60.46
2018-03-31T03:11:25.233Z,60.68
2018-03-31T03:12:25.101Z,60.49
2018-03-31T03:13:25.008Z,60.78
2018-03-31T03:14:24.973Z,60.58
2018-03-31T03:15:24.864Z,60.68
2018-03-31T03:16:24.792Z,61.54
2018-03-31T03:17:24.720Z,61.44
2018-03-31T03:18:24.649Z,61.54
2018-03-31T03:19:24.588Z,61.83
2018-03-31T03:20:24.528Z,61.25
2018-03-31T03:21:24.450Z,61.73
2018-03-31T03:22:24.367Z,62.02
2018-03-31T03:23:24.312Z,62.02
2018-03-31T03:24:24.222Z,61.54
2018-03-31T03:25:24.145Z,61.54
2018-03-31T03:26:24.086Z,61.44
2018-03-31T03:27:24.006Z,61.73
2018-03-31T03:28:23.946Z,61.92
2018-03-31T03:29:23.871Z,62.21
2018-03-31T03:30:23.782Z,62.21
2018-03-31T03:31:23.739Z,62.30
2018-03-31T03:32:23.643Z,62.30
2018-03-31T03:33:23.586Z,62.30
2018-03-31T03:34:23.499Z,62.30
2018-03-31T03:35:23.428Z,62.78
2018-03-31T03:36:23.379Z,62.59
2018-03-31T03:37:23.292Z,62.49
2018-03-31T03:38:23.217Z,62.59
2018-03-31T03:39:23.158Z,62.11
2018-03-31T03:40:23.061Z,62.68
2018-03-31T03:41:22.987Z,62.59
2018-03-31T03:42:22.911Z,62.97
2018-03-31T03:43:22.842Z,63.42
2018-03-31T03:44:22.788Z,63.73
2018-03-31T03:45:22.712Z,64.09
2018-03-31T03:46:22.653Z,64.47
2018-03-31T03:47:22.565Z,64.47
2018-03-31T03:48:22.487Z,64.09
2018-03-31T03:49:22.409Z,64.78
2018-03-31T03:50:22.343Z,64.47
2018-03-31T03:51:22.280Z,64.02
2018-03-31T03:52:22.226Z,64.09
2018-03-31T03:53:22.118Z,64.18
2018-03-31T03:54:22.044Z,64.78
2018-03-31T03:55:22.001Z,64.65
2018-03-31T03:56:21.906Z,64.56
2018-03-31T03:57:21.855Z,65.04
2018-03-31T03:58:21.755Z,64.85
2018-03-31T03:59:21.699Z,65.33
2018-03-31T04:00:21.622Z,65.61
2018-03-31T04:01:21.560Z,65.42
2018-03-31T04:02:21.486Z,65.04
2018-03-31T04:03:21.400Z,64.75
2018-03-31T04:04:21.325Z,64.47
2018-03-31T04:05:21.280Z,64.65
2018-03-31T04:06:21.207Z,64.56
2018-03-31T04:07:21.104Z,64.47
2018-03-31T04:08:21.052Z,64.59
2018-03-31T04:09:20.967Z,64.37
2018-03-31T04:10:20.910Z,64.47
2018-03-31T04:11:20.838Z,64.37
2018-03-31T04:12:20.804Z,65.52
2018-03-31T04:13:20.683Z,65.61
2018-03-31T04:14:20.606Z,65.33
2018-03-31T04:15:20.580Z,65.33
2018-03-31T04:16:20.479Z,65.70
2018-03-31T04:17:20.384Z,64.85
2018-03-31T04:18:20.326Z,64.47
2018-03-31T04:19:20.271Z,64.47
2018-03-31T04:20:20.184Z,64.09
2018-03-31T04:21:20.110Z,64.18
2018-03-31T04:22:20.042Z,64.65
2018-03-31T04:23:19.968Z,64.28
2018-03-31T04:24:19.904Z,64.18
2018-03-31T04:25:19.814Z,64.65
2018-03-31T04:26:19.736Z,64.37
2018-03-31T04:27:19.663Z,64.47
2018-03-31T04:28:19.602Z,64.56
2018-03-31T04:29:19.519Z,63.99
2018-03-31T04:30:19.467Z,64.09
2018-03-31T04:31:19.392Z,64.37
2018-03-31T04:32:19.321Z,64.28
2018-03-31T04:33:19.252Z,64.28
2018-03-31T04:34:19.187Z,64.18
2018-03-31T04:35:19.088Z,63.51
2018-03-31T04:36:19.015Z,64.09
2018-03-31T04:37:18.941Z,63.99
2018-03-31T04:38:18.898Z,64.18
2018-03-31T04:39:18.812Z,64.18
2018-03-31T04:40:18.729Z,63.89
2018-03-31T04:41:18.668Z,63.99
2018-03-31T04:42:18.627Z,64.12
2018-03-31T04:43:18.529Z,64.18
2018-03-31T04:44:18.443Z,64.37
2018-03-31T04:45:18.390Z,64.85
2018-03-31T04:46:18.312Z,64.18
2018-03-31T04:47:18.269Z,64.47
2018-03-31T04:48:18.174Z,64.47
2018-03-31T04:49:18.097Z,64.85
2018-03-31T04:50:18.008Z,65.04
2018-03-31T04:51:17.940Z,65.04
2018-03-31T04:52:17.881Z,64.65
2018-03-31T04:53:17.787Z,64.56
2018-03-31T04:54:17.749Z,65.13
2018-03-31T04:55:17.670Z,65.52
2018-03-31T04:56:17.596Z,65.80
2018-03-31T04:57:17.529Z,66.47
2018-03-31T04:58:17.434Z,66.18
2018-03-31T04:59:17.374Z,66.18
2018-03-31T05:00:17.293Z,66.28
2018-03-31T05:01:17.230Z,66.56
2018-03-31T05:02:17.159Z,65.99
2018-03-31T05:03:17.075Z,66.47
2018-03-31T05:04:17.024Z,65.99
2018-03-31T05:05:16.939Z,65.80
2018-03-31T05:06:16.915Z,66.66
2018-03-31T05:07:16.810Z,66.28
2018-03-31T05:08:16.716Z,66.18
2018-03-31T05:09:16.647Z,67.04
2018-03-31T05:10:16.573Z,66.94
2018-03-31T05:11:16.518Z,66.75
2018-03-31T05:12:16.422Z,66.85
2018-03-31T05:13:16.368Z,67.23
2018-03-31T05:14:16.300Z,67.14
2018-03-31T05:15:16.231Z,67.04
2018-03-31T05:16:16.156Z,67.04
2018-03-31T05:17:16.063Z,67.42
2018-03-31T05:18:15.988Z,67.14
2018-03-31T05:19:15.918Z,66.94
2018-03-31T05:20:15.878Z,67.04
2018-03-31T05:21:15.778Z,66.47
2018-03-31T05:22:15.708Z,66.47
2018-03-31T05:23:15.652Z,66.38
2018-03-31T05:24:15.556Z,66.28
2018-03-31T05:25:15.500Z,65.42
2018-03-31T05:26:15.429Z,64.75
2018-03-31T05:27:15.340Z,64.56
2018-03-31T05:28:15.279Z,64.56
2018-03-31T05:29:15.218Z,63.99
2018-03-31T05:30:15.150Z,64.09
2018-03-31T05:31:15.072Z,63.89
2018-03-31T05:32:14.993Z,64.18
2018-03-31T05:33:14.913Z,64.28
2018-03-31T05:34:14.856Z,63.60
2018-03-31T05:35:14.786Z,63.23
2018-03-31T05:36:14.696Z,62.94
2018-03-31T05:37:14.650Z,63.23
2018-03-31T05:38:14.556Z,62.75
2018-03-31T05:39:14.496Z,62.94
2018-03-31T05:40:14.411Z,62.75
2018-03-31T05:41:14.335Z,62.46
2018-03-31T05:42:14.288Z,62.65
2018-03-31T05:43:14.217Z,62.56
2018-03-31T05:44:14.134Z,62.37
2018-03-31T05:45:14.045Z,62.84
2018-03-31T05:46:13.975Z,63.89
2018-03-31T05:47:13.916Z,64.18
2018-03-31T05:48:13.826Z,64.75
2018-03-31T05:49:13.770Z,64.85
2018-03-31T05:50:13.700Z,65.52
2018-03-31T05:51:13.638Z,65.04
2018-03-31T05:52:13.584Z,64.75
2018-03-31T05:53:13.476Z,64.47
2018-03-31T05:54:13.412Z,64.47
2018-03-31T05:55:13.327Z,64.85
2018-03-31T05:56:13.274Z,65.61
2018-03-31T05:57:13.195Z,65.70
2018-03-31T05:58:13.112Z,64.85
2018-03-31T05:59:13.039Z,64.47
2018-03-31T06:00:12.971Z,64.47
2018-03-31T06:01:12.890Z,64.18
2018-03-31T06:02:12.839Z,64.18
2018-03-31T06:03:12.745Z,63.99
2018-03-31T06:04:12.710Z,63.89
2018-03-31T06:05:12.609Z,64.18
2018-03-31T06:06:12.555Z,63.99
2018-03-31T06:07:12.478Z,64.65
2018-03-31T06:08:12.414Z,64.18
2018-03-31T06:09:12.333Z,64.18
2018-03-31T06:10:12.242Z,64.28
2018-03-31T06:11:12.171Z,64.18
2018-03-31T06:12:12.132Z,64.28
2018-03-31T06:13:12.033Z,64.47
2018-03-31T06:14:11.957Z,64.56
2018-03-31T06:15:11.883Z,64.47
2018-03-31T06:16:11.805Z,64.65
2018-03-31T06:17:11.783Z,64.47
2018-03-31T06:18:11.663Z,64.09
2018-03-31T06:19:11.606Z,64.28
2018-03-31T06:20:11.523Z,63.80
2018-03-31T06:21:11.474Z,63.99
2018-03-31T06:22:11.392Z,63.60
2018-03-31T06:23:11.316Z,63.32
2018-03-31T06:24:11.237Z,63.51
2018-03-31T06:25:11.180Z,63.13
2018-03-31T06:26:11.122Z,63.04
2018-03-31T06:27:11.028Z,63.51
2018-03-31T06:28:10.945Z,63.13
2018-03-31T06:29:10.888Z,63.32
2018-03-31T06:30:10.795Z,62.68
2018-03-31T06:31:10.734Z,62.75
2018-03-31T06:32:10.643Z,62.59
2018-03-31T06:33:10.580Z,62.88
2018-03-31T06:34:10.501Z,62.78
2018-03-31T06:35:10.431Z,62.59
2018-03-31T06:36:10.361Z,62.88
2018-03-31T06:37:10.328Z,62.30
2018-03-31T06:38:10.213Z,61.83
2018-03-31T06:39:10.140Z,61.54
2018-03-31T06:40:10.079Z,60.78
2018-03-31T06:41:10.013Z,60.97
2018-03-31T06:42:09.940Z,60.87
2018-03-31T06:43:09.863Z,60.87
2018-03-31T06:44:09.803Z,61.63
2018-03-31T06:45:09.725Z,61.63
2018-03-31T06:46:09.640Z,61.63
2018-03-31T06:47:09.606Z,61.63
2018-03-31T06:48:09.518Z,61.25
2018-03-31T06:49:09.438Z,61.35
2018-03-31T06:50:09.370Z,61.25
2018-03-31T06:51:09.302Z,61.35
2018-03-31T06:52:09.215Z,61.54
2018-03-31T06:53:09.143Z,61.54
2018-03-31T06:54:09.086Z,61.35
2018-03-31T06:55:08.999Z,61.35
2018-03-31T06:56:08.940Z,60.97
2018-03-31T06:57:08.848Z,60.61
2018-03-31T06:58:08.775Z,60.14
2018-03-31T06:59:08.717Z,59.95
2018-03-31T07:00:08.663Z,60.04
2018-03-31T07:01:08.584Z,59.76
2018-03-31T07:02:08.518Z,59.19
2018-03-31T07:03:08.451Z,58.61
2018-03-31T07:04:08.353Z,57.78
2018-03-31T07:05:08.298Z,56.92
2018-03-31T07:06:08.213Z,56.25
2018-03-31T07:07:08.154Z,55.20
2018-03-31T07:08:08.088Z,55.23
2018-03-31T07:09:08.014Z,54.91
2018-03-31T07:10:07.932Z,54.82
2018-03-31T07:11:07.865Z,54.44
2018-03-31T07:12:07.805Z,54.91
2018-03-31T07:13:07.739Z,55.65
2018-03-31T07:14:07.677Z,55.36
2018-03-31T07:15:07.587Z,55.75
2018-03-31T07:16:07.513Z,55.49
2018-03-31T07:17:07.457Z,54.06
2018-03-31T07:18:07.397Z,53.39
2018-03-31T07:19:07.298Z,53.29
2018-03-31T07:20:07.236Z,52.43
2018-03-31T07:21:07.181Z,52.08
2018-03-31T07:22:07.111Z,52.24
2018-03-31T07:23:07.015Z,52.08
2018-03-31T07:24:06.979Z,52.17
2018-03-31T07:25:06.890Z,51.70
2018-03-31T07:26:06.817Z,51.48
2018-03-31T07:27:06.731Z,51.89
2018-03-31T07:28:06.662Z,51.57
2018-03-31T07:29:06.610Z,51.70
2018-03-31T07:30:06.545Z,51.79
2018-03-31T07:31:06.472Z,51.12
2018-03-31T07:32:06.413Z,51.03
2018-03-31T07:33:06.317Z,51.21
2018-03-31T07:34:06.260Z,50.93
2018-03-31T07:35:06.203Z,50.55
2018-03-31T07:36:06.122Z,50.45
2018-03-31T07:37:06.083Z,50.64
2018-03-31T07:38:05.990Z,50.35
2018-03-31T07:39:05.920Z,50.35
2018-03-31T07:40:05.822Z,50.74
2018-03-31T07:41:05.754Z,50.16
2018-03-31T07:42:05.686Z,50.45
2018-03-31T07:43:05.619Z,50.93
2018-03-31T07:44:05.557Z,50.55
2018-03-31T07:45:05.483Z,51.12
2018-03-31T07:46:05.416Z,50.55
2018-03-31T07:47:05.342Z,50.45
2018-03-31T07:48:05.284Z,50.35
2018-03-31T07:49:05.238Z,50.07
2018-03-31T07:50:05.157Z,50.35
2018-03-31T07:51:05.063Z,49.23
2018-03-31T07:52:05.031Z,48.85
2018-03-31T07:53:04.952Z,48.95
2018-03-31T07:54:04.862Z,48.38
2018-03-31T07:55:04.788Z,47.71
2018-03-31T07:56:04.778Z,47.16
2018-03-31T07:57:04.721Z,46.67
2018-03-31T07:58:04.594Z,46.58
2018-03-31T07:59:04.537Z,46.58
2018-03-31T08:00:04.467Z,46.58
2018-03-31T08:01:04.393Z,46.27
2018-03-31T08:02:04.303Z,46.84
2018-03-31T08:03:04.237Z,46.46
2018-03-31T08:04:04.184Z,46.66
2018-03-31T08:05:04.122Z,47.03
2018-03-31T08:06:04.050Z,46.66
2018-03-31T08:07:03.962Z,46.56
2018-03-31T08:08:03.896Z,46.56
2018-03-31T08:09:03.886Z,46.37
2018-03-31T08:10:03.776Z,46.17
2018-03-31T08:11:03.692Z,45.70
2018-03-31T08:12:03.625Z,45.51
2018-03-31T08:13:03.572Z,45.31
2018-03-31T08:14:03.504Z,45.31
2018-03-31T08:15:03.416Z,45.79
2018-03-31T08:16:03.364Z,45.31
2018-03-31T08:17:03.284Z,45.31
2018-03-31T08:18:03.220Z,45.31
2018-03-31T08:19:03.163Z,45.51
2018-03-31T08:20:03.076Z,45.12
2018-03-31T08:21:03.046Z,45.12
2018-03-31T08:22:02.956Z,45.31
2018-03-31T08:23:02.880Z,45.12
2018-03-31T08:24:02.803Z,44.74
2018-03-31T08:25:02.728Z,44.43
2018-03-31T08:26:02.659Z,44.45
2018-03-31T08:27:02.590Z,43.88
2018-03-31T08:28:02.531Z,43.50
2018-03-31T08:29:02.453Z,43.12
2018-03-31T08:30:02.402Z,43.21
2018-03-31T08:31:02.312Z,43.02
2018-03-31T08:32:02.263Z,43.40
2018-03-31T08:33:02.186Z,43.30
2018-03-31T08:34:02.126Z,43.12
2018-03-31T08:35:02.045Z,42.54
2018-03-31T08:36:01.988Z,42.07
2018-03-31T08:37:01.901Z,42.07
2018-03-31T08:38:01.857Z,42.07
2018-03-31T08:39:01.774Z,41.97
2018-03-31T08:40:01.717Z,41.99
2018-03-31T08:41:01.651Z,42.27
2018-03-31T08:42:01.559Z,42.07
2018-03-31T08:43:01.515Z,41.97
2018-03-31T08:44:01.428Z,42.56
2018-03-31T08:45:01.353Z,42.73
2018-03-31T08:46:01.293Z,42.94
2018-03-31T08:47:01.274Z,43.04
2018-03-31T08:48:01.151Z,43.04
2018-03-31T08:49:01.087Z,42.66
2018-03-31T08:50:01.017Z,42.76
2018-03-31T08:51:00.941Z,42.85
2018-03-31T08:52:00.875Z,42.66
2018-03-31T08:53:00.809Z,42.47
2018-03-31T08:54:00.750Z,42.08
2018-03-31T08:55:00.686Z,42.08
2018-03-31T08:56:00.598Z,42.76
2018-03-31T08:57:00.555Z,42.56
2018-03-31T08:58:00.477Z,42.47
2018-03-31T08:59:00.388Z,42.18
2018-03-31T09:00:00.338Z,42.37
2018-03-31T09:01:00.256Z,42.37
2018-03-31T09:02:00.192Z,42.18
2018-03-31T09:03:00.118Z,41.58
2018-03-31T09:04:00.072Z,41.68
2018-03-31T09:04:59.993Z,41.58
2018-03-31T09:05:59.920Z,41.78
2018-03-31T09:06:59.846Z,41.78
2018-03-31T09:07:59.795Z,42.27
2018-03-31T09:08:59.709Z,41.99
2018-03-31T09:09:59.643Z,41.51
2018-03-31T09:10:59.598Z,41.41
2018-03-31T09:11:59.501Z,41.70
2018-03-31T09:12:59.448Z,41.99
2018-03-31T09:13:59.368Z,42.27
2018-03-31T09:14:59.320Z,42.18
2018-03-31T09:15:59.226Z,42.76
2018-03-31T09:16:59.156Z,42.76
2018-03-31T09:17:59.086Z,42.66
2018-03-31T09:18:59.018Z,42.35
2018-03-31T09:19:58.975Z,41.32
2018-03-31T09:20:58.887Z,40.82
2018-03-31T09:21:58.869Z,40.25
2018-03-31T09:22:58.748Z,40.08
2018-03-31T09:23:58.697Z,39.50
2018-03-31T09:24:58.631Z,39.31
2018-03-31T09:25:58.571Z,38.62
2018-03-31T09:26:58.466Z,38.81
2018-03-31T09:27:58.401Z,39.03
2018-03-31T09:28:58.352Z,38.83
2018-03-31T09:29:58.284Z,39.31
2018-03-31T09:30:58.214Z,39.03
2018-03-31T09:31:58.133Z,39.12
2018-03-31T09:32:58.082Z,39.40
2018-03-31T09:33:57.997Z,39.60
2018-03-31T09:34:57.947Z,39.86
2018-03-31T09:35:57.874Z,40.44
2018-03-31T09:36:57.785Z,40.44
2018-03-31T09:37:57.729Z,40.82
2018-03-31T09:38:57.667Z,40.65
2018-03-31T09:39:57.640Z,40.46
2018-03-31T09:40:57.529Z,40.55
2018-03-31T09:41:57.463Z,40.75
2018-03-31T09:42:57.371Z,40.84
2018-03-31T09:43:57.326Z,40.75
2018-03-31T09:44:57.245Z,40.84
2018-03-31T09:45:57.188Z,40.94
2018-03-31T09:46:57.097Z,40.94
2018-03-31T09:47:57.023Z,40.94
2018-03-31T09:48:56.956Z,40.84
2018-03-31T09:49:56.891Z,40.65
2018-03-31T09:50:56.817Z,40.65
2018-03-31T09:51:56.764Z,40.84
2018-03-31T09:52:56.691Z,40.84
2018-03-31T09:53:56.645Z,40.84
2018-03-31T09:54:56.556Z,40.94
2018-03-31T09:55:56.478Z,41.32
2018-03-31T09:56:56.422Z,41.32
2018-03-31T09:57:56.351Z,41.61
2018-03-31T09:58:56.301Z,41.61
2018-03-31T09:59:56.201Z,41.99
2018-03-31T10:00:56.127Z,41.89
2018-03-31T10:01:56.087Z,42.08
2018-03-31T10:02:55.988Z,41.89
2018-03-31T10:03:55.979Z,41.63
2018-03-31T10:04:55.877Z,42.11
2018-03-31T10:05:55.854Z,41.89
2018-03-31T10:06:55.729Z,41.70
2018-03-31T10:07:55.677Z,41.51
2018-03-31T10:08:55.585Z,41.70
2018-03-31T10:09:55.516Z,41.72
2018-03-31T10:10:55.442Z,41.72
2018-03-31T10:11:55.390Z,41.72
2018-03-31T10:12:55.320Z,42.01
2018-03-31T10:13:55.256Z,41.91
2018-03-31T10:14:55.166Z,42.01
2018-03-31T10:15:55.111Z,41.91
2018-03-31T10:16:55.030Z,42.20
2018-03-31T10:17:54.987Z,42.20
2018-03-31T10:18:54.905Z,41.63
2018-03-31T10:19:54.850Z,41.72
2018-03-31T10:20:54.783Z,42.01
2018-03-31T10:21:54.697Z,42.20
2018-03-31T10:22:54.631Z,42.20
2018-03-31T10:23:54.564Z,42.11
2018-03-31T10:24:54.506Z,41.72
2018-03-31T10:25:54.419Z,41.34
2018-03-31T10:26:54.361Z,40.67
2018-03-31T10:27:54.306Z,40.48
2018-03-31T10:28:54.243Z,40.19
2018-03-31T10:29:54.161Z,40.19
2018-03-31T10:30:54.094Z,40.48
2018-03-31T10:31:54.021Z,41.05
2018-03-31T10:32:53.957Z,41.61
2018-03-31T10:33:53.898Z,41.51
2018-03-31T10:34:53.823Z,41.61
2018-03-31T10:35:53.738Z,41.41
2018-03-31T10:36:53.681Z,41.51
2018-03-31T10:37:53.598Z,41.41
2018-03-31T10:38:53.570Z,41.32
2018-03-31T10:39:53.473Z,41.41
2018-03-31T10:40:53.391Z,41.22
2018-03-31T10:41:53.345Z,41.32
2018-03-31T10:42:53.270Z,41.89
2018-03-31T10:43:53.189Z,41.61
2018-03-31T10:44:53.136Z,41.70
2018-03-31T10:45:53.049Z,42.27
2018-03-31T10:46:53.007Z,41.99
2018-03-31T10:47:52.939Z,42.01
2018-03-31T10:48:52.894Z,41.82
2018-03-31T10:49:52.817Z,41.51
2018-03-31T10:50:52.715Z,41.51
2018-03-31T10:51:52.657Z,41.24
2018-03-31T10:52:52.593Z,40.94
2018-03-31T10:53:52.499Z,40.75
2018-03-31T10:54:52.454Z,39.98
2018-03-31T10:55:52.364Z,39.40
2018-03-31T10:56:52.303Z,39.22
2018-03-31T10:57:52.233Z,39.22
2018-03-31T10:58:52.152Z,39.03
2018-03-31T10:59:52.127Z,39.03
2018-03-31T11:00:52.047Z,39.50
2018-03-31T11:01:51.966Z,39.69
2018-03-31T11:02:51.896Z,39.03
2018-03-31T11:03:51.814Z,39.03
2018-03-31T11:04:51.743Z,39.12
2018-03-31T11:05:51.675Z,39.31
2018-03-31T11:06:51.626Z,38.54
2018-03-31T11:07:51.538Z,39.03
2018-03-31T11:08:51.469Z,38.74
2018-03-31T11:09:51.407Z,39.12
2018-03-31T11:10:51.322Z,39.31
2018-03-31T11:11:51.252Z,39.89
2018-03-31T11:12:51.295Z,39.60
2018-03-31T11:13:51.148Z,39.22
2018-03-31T11:14:51.065Z,38.83
2018-03-31T11:15:51.027Z,38.93
2018-03-31T11:16:50.945Z,38.64
2018-03-31T11:17:50.852Z,38.35
2018-03-31T11:18:50.804Z,38.35
2018-03-31T11:19:50.728Z,38.54
2018-03-31T11:20:50.661Z,38.35
2018-03-31T11:21:50.576Z,38.17
2018-03-31T11:22:50.508Z,37.97
2018-03-31T11:23:50.449Z,38.54
2018-03-31T11:24:50.377Z,39.22
2018-03-31T11:25:50.300Z,39.12
2018-03-31T11:26:50.244Z,39.50
2018-03-31T11:27:50.160Z,39.50
2018-03-31T11:28:50.075Z,39.69
2018-03-31T11:29:50.011Z,39.60
2018-03-31T11:30:49.938Z,39.40
2018-03-31T11:31:49.884Z,39.60
2018-03-31T11:32:49.816Z,39.50
2018-03-31T11:33:49.748Z,39.22
2018-03-31T11:34:49.659Z,39.12
2018-03-31T11:35:49.593Z,38.93
2018-03-31T11:36:49.543Z,39.12
2018-03-31T11:37:49.538Z,38.93
2018-03-31T11:38:49.406Z,38.83
2018-03-31T11:39:49.341Z,38.26
2018-03-31T11:40:49.240Z,37.88
2018-03-31T11:41:49.172Z,37.68
2018-03-31T11:42:49.130Z,37.78
2018-03-31T11:43:49.038Z,38.83
2018-03-31T11:44:48.990Z,37.97
2018-03-31T11:45:48.902Z,37.88
2018-03-31T11:46:48.846Z,37.88
2018-03-31T11:47:48.760Z,37.78
2018-03-31T11:48:48.700Z,37.88
2018-03-31T11:49:48.622Z,38.35
2018-03-31T11:50:48.548Z,38.07
2018-03-31T11:51:48.477Z,38.64
2018-03-31T11:52:48.433Z,38.17
2018-03-31T11:53:48.335Z,39.03
2018-03-31T11:54:48.295Z,38.54
2018-03-31T11:55:48.212Z,38.07
2018-03-31T11:56:48.127Z,38.26
2018-03-31T11:57:48.082Z,38.26
2018-03-31T11:58:47.995Z,38.74
2018-03-31T11:59:47.922Z,38.26
2018-03-31T12:00:47.860Z,38.07
2018-03-31T12:01:47.781Z,38.17
2018-03-31T12:02:47.728Z,38.35
2018-03-31T12:03:47.664Z,38.83
2018-03-31T12:04:47.578Z,39.03
2018-03-31T12:05:47.527Z,39.50
2018-03-31T12:06:47.438Z,39.40
2018-03-31T12:07:47.361Z,39.50
2018-03-31T12:08:47.307Z,39.40
2018-03-31T12:09:47.222Z,39.50
2018-03-31T12:10:47.154Z,39.98
2018-03-31T12:11:47.094Z,40.08
2018-03-31T12:12:47.028Z,39.98
2018-03-31T12:13:46.962Z,39.79
2018-03-31T12:14:46.869Z,39.12
2018-03-31T12:15:46.806Z,38.64
2018-03-31T12:16:46.754Z,38.83
2018-03-31T12:17:46.671Z,38.54
2018-03-31T12:18:46.588Z,37.97
2018-03-31T12:19:46.541Z,37.40
2018-03-31T12:20:46.454Z,37.21
2018-03-31T12:21:46.408Z,36.54
2018-03-31T12:22:46.328Z,36.54
2018-03-31T12:23:46.258Z,36.54
2018-03-31T12:24:46.175Z,37.11
2018-03-31T12:25:46.121Z,37.11
2018-03-31T12:26:46.033Z,37.59
2018-03-31T12:27:45.965Z,37.78
2018-03-31T12:28:45.896Z,37.68
2018-03-31T12:29:45.838Z,38.26
2018-03-31T12:30:45.773Z,38.45
2018-03-31T12:31:45.705Z,38.07
2018-03-31T12:32:45.643Z,38.35
2018-03-31T12:33:45.572Z,37.68
2018-03-31T12:34:45.477Z,37.68
2018-03-31T12:35:45.418Z,37.78
2018-03-31T12:36:45.347Z,37.78
2018-03-31T12:37:45.268Z,38.54
2018-03-31T12:38:45.202Z,38.83
2018-03-31T12:39:45.123Z,38.45
2018-03-31T12:40:45.078Z,38.83
2018-03-31T12:41:44.997Z,38.45
2018-03-31T12:42:44.941Z,38.54
2018-03-31T12:43:44.860Z,38.45
2018-03-31T12:44:44.773Z,39.22
2018-03-31T12:45:44.727Z,39.12
2018-03-31T12:46:44.652Z,38.93
2018-03-31T12:47:44.567Z,38.93
2018-03-31T12:48:44.498Z,38.45
2018-03-31T12:49:44.440Z,38.64
2018-03-31T12:50:44.353Z,37.59
2018-03-31T12:51:44.289Z,37.49